Portada
METAR-TAF:

METAR-TAF

Aeroports :

Lima, Perú

latitud: 12-00S, longitud: 077-07W, altitud: 12 m

Observació

L'informe es va fer fa 43 minuts, a les 20:00 UTC
Vent 12 kt del Sud
Temperatura 26°C
Humitat 74%
Pressió 1011 hPa
Visibilitat 10 km o més
sense núvols per sota de 1500 mi sense presència de cumulonimbus.

METAR: SPJC 252000Z 17012KT CAVOK 26/21 Q1011 NOSIG RMK PP000

Hora: 15:43 (20:43 UTC)

Pronòstic

L'informe es va fer fa 8 hores i 43 minuts, a les 12:00 UTC
Pronòstic vàlid del 25 a les 18 UTC al 26 a les 18 UTC
Vent 12 kt del Sud
Visibilitat 10 km o més
sense núvols per sota de 1500 mi sense presència de cumulonimbus.
A partir de les 26 a les 0600 UTC
Vent 8 kt del Sud
Visibilitat 10 km o més
Escasses núvols a una alçada de 1000 ft
Cel ennuvolat a una alçada de 17000 ft
Temporalment
l' 26 a les 06 UTC al 26 a les 10 UTC
Cel ennuvolat a una alçada de 1000 ft

TAF: SPJC 251200Z 2518/2618 18012KT CAVOK TX28/2519Z TN23/2611Z FM260600 17008KT 9999 FEW010 BKN170 TEMPO 2606/2610 BKN010

Observacions i pronòstics meteorològics de més de 4000 aeroports (METAR i TAF).

Les estacions disponibles són els punts grocs i vermells al mapa.

Posi el ratolí al punt desitjat per veure el nom de l'estació.

Feu clic per veure les observacions i els pronòstics meteorològics.

Per canviar el mapa: feu clic els botons verds amb una creu de color negre per apropar; al botó verd amb un guió per allunyar la imatge; o en les fletxes verdes per a mapes adjacents.


METAR-TAF: